createdAt,value
2023-05-09T00:01:58.465Z,8.90
2023-05-09T00:04:26.608Z,7.90
2023-05-09T00:06:54.251Z,10.30
2023-05-09T00:09:21.803Z,11.10
2023-05-09T00:11:50.304Z,9.10
2023-05-09T00:14:18.332Z,7.40
2023-05-09T00:16:45.844Z,7.70
2023-05-09T00:19:13.366Z,10.30
2023-05-09T00:21:41.003Z,9.30
2023-05-09T00:24:08.614Z,12.40
2023-05-09T00:26:36.334Z,13.10
2023-05-09T00:29:04.368Z,11.70
2023-05-09T00:31:32.481Z,13.70
2023-05-09T00:34:00.732Z,11.30
2023-05-09T00:36:28.307Z,8.20
2023-05-09T00:38:55.841Z,8.40
2023-05-09T00:41:23.527Z,9.10
2023-05-09T00:43:51.141Z,8.10
2023-05-09T00:46:18.774Z,7.10
2023-05-09T00:48:46.814Z,6.80
2023-05-09T00:51:15.477Z,7.10
2023-05-09T00:53:43.061Z,7.70
2023-05-09T00:56:12.094Z,7.10
2023-05-09T00:58:39.654Z,7.40
2023-05-09T01:01:08.399Z,7.30
2023-05-09T01:03:36.744Z,8.20
2023-05-09T01:06:24.474Z,9.00
2023-05-09T01:09:15.209Z,6.80
2023-05-09T01:12:07.951Z,6.30
2023-05-09T01:14:51.677Z,6.10
2023-05-09T01:17:46.611Z,5.30
2023-05-09T01:20:39.110Z,4.90
2023-05-09T01:23:22.958Z,6.70
2023-05-09T01:26:08.426Z,6.40
2023-05-09T01:28:56.819Z,6.20
2023-05-09T01:31:26.856Z,5.00
2023-05-09T01:34:02.985Z,6.90
2023-05-09T01:36:33.835Z,7.00
2023-05-09T01:39:04.206Z,6.10
2023-05-09T01:41:36.279Z,5.30
2023-05-09T01:44:08.289Z,6.30
2023-05-09T01:46:37.434Z,5.60
2023-05-09T01:49:08.993Z,5.00
2023-05-09T01:51:38.610Z,5.70
2023-05-09T01:54:06.913Z,6.20
2023-05-09T01:56:36.940Z,6.50
2023-05-09T01:59:06.548Z,6.20
2023-05-09T02:01:37.142Z,5.70
2023-05-09T02:04:05.686Z,5.40
2023-05-09T02:06:34.663Z,5.20
2023-05-09T02:09:02.979Z,4.60
2023-05-09T02:11:30.697Z,5.30
2023-05-09T02:13:58.359Z,5.20
2023-05-09T02:16:27.772Z,4.50
2023-05-09T02:18:55.574Z,5.60
2023-05-09T02:21:23.256Z,5.30
2023-05-09T02:23:51.037Z,6.80
2023-05-09T02:26:20.295Z,6.40
2023-05-09T02:28:49.753Z,7.00
2023-05-09T02:31:20.435Z,7.60
2023-05-09T02:33:49.569Z,6.90
2023-05-09T02:36:18.468Z,6.60
2023-05-09T02:38:48.374Z,5.60
2023-05-09T02:41:17.087Z,5.60
2023-05-09T02:43:44.791Z,5.30
2023-05-09T02:46:12.956Z,5.00
2023-05-09T02:48:40.674Z,5.10
2023-05-09T02:51:08.295Z,5.70
2023-05-09T02:53:35.884Z,6.30
2023-05-09T02:56:04.109Z,5.70
2023-05-09T02:58:31.744Z,6.00
2023-05-09T03:00:59.410Z,6.00
2023-05-09T03:03:27.070Z,6.10
2023-05-09T03:05:54.850Z,6.50
2023-05-09T03:08:22.301Z,7.20
2023-05-09T03:10:49.890Z,7.20
2023-05-09T03:13:17.430Z,6.50
2023-05-09T03:15:45.080Z,6.60
2023-05-09T03:18:13.028Z,6.50
2023-05-09T03:20:40.744Z,5.90
2023-05-09T03:23:08.425Z,6.20
2023-05-09T03:25:36.100Z,6.40
2023-05-09T03:28:05.004Z,6.80
2023-05-09T03:30:32.600Z,6.00
2023-05-09T03:33:00.358Z,6.00
2023-05-09T03:35:27.940Z,6.40
2023-05-09T03:37:55.604Z,6.30
2023-05-09T03:40:23.207Z,6.30
2023-05-09T03:42:50.786Z,6.70
2023-05-09T03:45:18.492Z,6.60
2023-05-09T03:47:46.451Z,7.00
2023-05-09T03:50:14.000Z,9.00
2023-05-09T03:52:41.571Z,8.00
2023-05-09T03:55:09.596Z,6.20
2023-05-09T03:57:37.674Z,8.60
2023-05-09T04:00:06.806Z,9.60
2023-05-09T04:02:34.588Z,9.00
2023-05-09T04:05:02.310Z,7.20
2023-05-09T04:07:31.496Z,7.20
2023-05-09T04:09:59.817Z,6.70
2023-05-09T04:12:27.471Z,5.90
2023-05-09T04:14:55.059Z,6.20
2023-05-09T04:17:22.760Z,7.00
2023-05-09T04:19:50.559Z,6.40
2023-05-09T04:22:18.447Z,6.70
2023-05-09T04:24:46.281Z,14.90
2023-05-09T04:27:14.044Z,13.20
2023-05-09T04:29:41.914Z,11.80
2023-05-09T04:32:09.460Z,13.30
2023-05-09T04:34:37.458Z,9.80
2023-05-09T04:37:06.005Z,11.60
2023-05-09T04:39:33.596Z,35.80
2023-05-09T04:42:01.116Z,25.10
2023-05-09T04:44:28.889Z,8.30
2023-05-09T04:46:58.237Z,6.20
2023-05-09T04:49:25.916Z,6.00
2023-05-09T04:51:53.478Z,5.80
2023-05-09T04:54:21.421Z,7.30
2023-05-09T04:56:50.714Z,7.40
2023-05-09T04:59:19.071Z,8.30
2023-05-09T05:01:46.815Z,6.10
2023-05-09T05:04:14.532Z,6.20
2023-05-09T05:06:42.175Z,7.30
2023-05-09T05:09:10.857Z,6.50
2023-05-09T05:11:38.301Z,6.60
2023-05-09T05:14:05.898Z,7.80
2023-05-09T05:16:33.721Z,6.40
2023-05-09T05:19:01.440Z,6.10
2023-05-09T05:21:29.721Z,6.60
2023-05-09T05:23:57.243Z,6.80
2023-05-09T05:26:25.727Z,6.60
2023-05-09T05:28:55.635Z,6.80
2023-05-09T05:31:23.422Z,6.30
2023-05-09T05:33:50.903Z,7.20
2023-05-09T05:36:20.920Z,6.90
2023-05-09T05:38:50.555Z,6.60
2023-05-09T05:41:21.006Z,7.10
2023-05-09T05:43:48.492Z,10.00
2023-05-09T05:46:22.832Z,7.40
2023-05-09T05:49:28.474Z,7.00
2023-05-09T05:51:56.109Z,6.30
2023-05-09T05:54:25.556Z,6.60
2023-05-09T05:56:53.072Z,6.70
2023-05-09T05:59:22.970Z,6.80
2023-05-09T06:01:54.275Z,6.40
2023-05-09T06:04:22.207Z,5.90
2023-05-09T06:06:53.538Z,5.10
2023-05-09T06:09:21.147Z,6.80
2023-05-09T06:11:49.143Z,5.90
2023-05-09T06:14:20.500Z,4.70
2023-05-09T06:16:48.352Z,4.90
2023-05-09T06:19:18.935Z,5.50
2023-05-09T06:21:46.622Z,3.50
2023-05-09T06:24:23.851Z,3.40
2023-05-09T06:27:03.087Z,3.20
2023-05-09T06:29:40.128Z,3.10
2023-05-09T06:32:07.732Z,3.10
2023-05-09T06:34:38.072Z,4.10
2023-05-09T06:37:06.181Z,2.70
2023-05-09T06:39:39.842Z,2.90
2023-05-09T06:42:10.900Z,2.60
2023-05-09T06:44:38.651Z,2.90
2023-05-09T06:47:06.730Z,2.50
2023-05-09T06:49:37.501Z,2.90
2023-05-09T06:52:05.165Z,2.10
2023-05-09T06:54:33.088Z,2.20
2023-05-09T06:57:04.571Z,2.10
2023-05-09T06:59:39.759Z,3.50
2023-05-09T07:02:07.423Z,2.80
2023-05-09T07:04:35.958Z,2.80
2023-05-09T07:07:16.740Z,2.40
2023-05-09T07:09:50.696Z,2.80
2023-05-09T07:12:41.477Z,2.40
2023-05-09T07:15:10.287Z,2.50
2023-05-09T07:17:38.097Z,3.30
2023-05-09T07:20:07.163Z,2.00
2023-05-09T07:22:39.176Z,2.20
2023-05-09T07:25:13.743Z,2.10
2023-05-09T07:27:41.415Z,3.70
2023-05-09T07:30:09.318Z,2.20
2023-05-09T07:32:37.057Z,1.80
2023-05-09T07:35:05.793Z,1.90
2023-05-09T07:37:33.476Z,2.20
2023-05-09T07:40:01.571Z,2.70
2023-05-09T07:42:35.444Z,2.50
2023-05-09T07:45:07.549Z,1.90
2023-05-09T07:47:35.701Z,1.70
2023-05-09T07:50:03.766Z,1.70
2023-05-09T07:52:42.406Z,2.40
2023-05-09T07:55:46.649Z,2.20
2023-05-09T07:58:15.902Z,2.60
2023-05-09T08:00:44.724Z,2.80
2023-05-09T08:03:12.702Z,2.30
2023-05-09T08:05:40.862Z,2.30
2023-05-09T08:08:10.125Z,2.50
2023-05-09T08:10:37.862Z,2.40
2023-05-09T08:13:06.021Z,2.60
2023-05-09T08:15:44.381Z,2.10
2023-05-09T08:18:12.568Z,2.20
2023-05-09T08:20:40.900Z,2.30
2023-05-09T08:23:08.899Z,2.90
2023-05-09T08:25:36.677Z,2.30
2023-05-09T08:28:06.526Z,2.50
2023-05-09T08:30:34.461Z,4.30
2023-05-09T08:33:02.487Z,2.90
2023-05-09T08:35:33.318Z,2.50
2023-05-09T08:38:01.496Z,2.70
2023-05-09T08:40:29.347Z,2.90
2023-05-09T08:42:57.843Z,4.70
2023-05-09T08:45:30.622Z,3.00
2023-05-09T08:48:03.437Z,3.90
2023-05-09T08:50:35.432Z,3.50
2023-05-09T08:53:08.920Z,3.60
2023-05-09T08:55:38.061Z,2.30
2023-05-09T08:58:28.198Z,1.90
2023-05-09T09:01:00.015Z,2.70
2023-05-09T09:03:27.552Z,2.20
2023-05-09T09:05:56.604Z,2.30
2023-05-09T09:08:26.448Z,7.60
2023-05-09T09:10:54.287Z,2.40
2023-05-09T09:13:22.670Z,3.60
2023-05-09T09:15:54.036Z,2.20
2023-05-09T09:18:23.978Z,2.30
2023-05-09T09:21:06.398Z,2.10
2023-05-09T09:23:34.645Z,2.40
2023-05-09T09:26:06.522Z,2.50
2023-05-09T09:28:34.192Z,2.20
2023-05-09T09:31:02.042Z,2.70
2023-05-09T09:33:29.780Z,3.30
2023-05-09T09:35:57.799Z,2.30
2023-05-09T09:38:25.529Z,2.70
2023-05-09T09:40:54.884Z,2.60
2023-05-09T09:43:34.044Z,2.30
2023-05-09T09:46:07.343Z,3.00
2023-05-09T09:48:36.187Z,2.70
2023-05-09T09:51:11.585Z,3.40
2023-05-09T09:53:41.381Z,3.20
2023-05-09T09:56:09.706Z,2.50
2023-05-09T09:58:37.192Z,2.80
2023-05-09T10:01:09.777Z,3.10
2023-05-09T10:03:41.921Z,2.70
2023-05-09T10:06:11.749Z,3.10
2023-05-09T10:08:40.198Z,3.00
2023-05-09T10:11:08.930Z,2.80
2023-05-09T10:13:38.406Z,2.40
2023-05-09T10:16:08.849Z,3.30
2023-05-09T10:18:37.744Z,2.80
2023-05-09T10:21:09.619Z,2.80
2023-05-09T10:23:40.923Z,2.80
2023-05-09T10:26:32.486Z,2.40
2023-05-09T10:29:05.655Z,2.80
2023-05-09T10:31:39.195Z,2.80
2023-05-09T10:34:10.590Z,2.90
2023-05-09T10:36:38.866Z,2.40
2023-05-09T10:39:09.909Z,2.60
2023-05-09T10:41:39.657Z,2.30
2023-05-09T10:44:07.345Z,2.80
2023-05-09T10:46:36.179Z,2.30
2023-05-09T10:49:04.386Z,3.10
2023-05-09T10:51:33.228Z,2.30
2023-05-09T10:54:01.137Z,2.40
2023-05-09T10:56:36.596Z,2.70
2023-05-09T10:59:05.159Z,2.70
2023-05-09T11:01:37.764Z,3.10
2023-05-09T11:04:12.911Z,3.70
2023-05-09T11:06:51.976Z,3.50
2023-05-09T11:09:28.354Z,2.30
2023-05-09T11:12:05.102Z,2.30
2023-05-09T11:14:38.000Z,2.70
2023-05-09T11:17:09.397Z,2.60
2023-05-09T11:19:39.950Z,2.30
2023-05-09T11:22:16.568Z,3.40
2023-05-09T11:24:47.324Z,2.80
2023-05-09T11:27:26.772Z,2.60
2023-05-09T11:30:00.613Z,2.10
2023-05-09T11:32:35.046Z,2.50
2023-05-09T11:35:12.559Z,2.90
2023-05-09T11:37:58.083Z,2.70
2023-05-09T11:40:27.500Z,3.00
2023-05-09T11:42:58.875Z,2.40
2023-05-09T11:45:32.200Z,3.10
2023-05-09T11:48:01.599Z,2.80
2023-05-09T11:50:29.364Z,2.80
2023-05-09T11:52:57.197Z,3.00
2023-05-09T11:55:29.810Z,3.10
2023-05-09T11:57:59.350Z,2.90
2023-05-09T12:00:27.305Z,2.90
2023-05-09T12:02:55.036Z,4.00
2023-05-09T12:05:23.357Z,4.10
2023-05-09T12:07:52.210Z,3.00
2023-05-09T12:10:23.312Z,3.40
2023-05-09T12:12:55.477Z,3.00
2023-05-09T12:15:23.802Z,3.30
2023-05-09T12:18:08.897Z,2.90
2023-05-09T12:20:53.298Z,3.40
2023-05-09T12:23:20.948Z,4.00
2023-05-09T12:25:56.468Z,3.40
2023-05-09T12:28:27.941Z,4.30
2023-05-09T12:30:56.173Z,3.50
2023-05-09T12:33:25.301Z,3.20
2023-05-09T12:36:11.383Z,3.70
2023-05-09T12:38:39.330Z,3.50
2023-05-09T12:41:34.899Z,4.00
2023-05-09T12:44:06.051Z,4.10
2023-05-09T12:46:35.689Z,4.30
2023-05-09T12:49:03.889Z,3.80
2023-05-09T12:51:31.427Z,3.70
2023-05-09T12:54:04.769Z,3.60
2023-05-09T12:56:37.182Z,3.70
2023-05-09T12:59:21.027Z,4.10
2023-05-09T13:01:54.935Z,4.10
2023-05-09T13:04:23.458Z,3.50
2023-05-09T13:06:55.399Z,5.90
2023-05-09T13:09:25.310Z,3.70
2023-05-09T13:11:53.572Z,4.20
2023-05-09T13:14:23.069Z,17.80
2023-05-09T13:16:50.756Z,4.80
2023-05-09T13:19:18.317Z,4.00
2023-05-09T13:21:46.053Z,3.70
2023-05-09T13:24:13.606Z,3.40
2023-05-09T13:26:41.244Z,3.70
2023-05-09T13:29:08.756Z,3.80
2023-05-09T13:31:36.267Z,4.10
2023-05-09T13:34:05.057Z,3.40
2023-05-09T13:36:32.975Z,3.50
2023-05-09T13:39:00.692Z,4.00
2023-05-09T13:41:30.749Z,3.90
2023-05-09T13:43:58.648Z,3.20
2023-05-09T13:46:27.779Z,4.80
2023-05-09T13:48:55.461Z,5.90
2023-05-09T13:51:23.549Z,4.00
2023-05-09T13:53:51.212Z,3.60
2023-05-09T13:56:19.487Z,3.90
2023-05-09T13:58:47.021Z,3.30
2023-05-09T14:01:15.407Z,4.00
2023-05-09T14:03:43.066Z,3.80
2023-05-09T14:06:15.266Z,3.90
2023-05-09T14:08:44.134Z,4.70
2023-05-09T14:11:11.667Z,4.00
2023-05-09T14:13:39.103Z,4.40
2023-05-09T14:16:07.095Z,5.10
2023-05-09T14:18:35.534Z,4.50
2023-05-09T14:21:03.120Z,4.30
2023-05-09T14:23:31.450Z,4.90
2023-05-09T14:26:00.130Z,4.50
2023-05-09T14:28:28.155Z,4.10
2023-05-09T14:30:57.397Z,4.80
2023-05-09T14:33:26.333Z,5.60
2023-05-09T14:35:56.437Z,4.80
2023-05-09T14:38:24.174Z,4.40
2023-05-09T14:40:51.815Z,5.10
2023-05-09T14:43:19.286Z,4.20
2023-05-09T14:45:47.308Z,5.20
2023-05-09T14:48:16.228Z,4.60
2023-05-09T14:50:43.982Z,5.60
2023-05-09T14:53:11.660Z,5.60
2023-05-09T14:55:39.144Z,6.90
2023-05-09T14:58:07.681Z,8.50
2023-05-09T15:00:35.166Z,5.40
2023-05-09T15:03:03.213Z,5.60
2023-05-09T15:05:31.664Z,5.40
2023-05-09T15:07:59.125Z,5.30
2023-05-09T15:10:27.805Z,5.90
2023-05-09T15:12:56.148Z,6.10
2023-05-09T15:15:24.210Z,5.90
2023-05-09T15:17:52.920Z,6.00
2023-05-09T15:20:21.578Z,6.20
2023-05-09T15:22:50.603Z,6.60
2023-05-09T15:25:19.506Z,6.00
2023-05-09T15:27:50.265Z,8.20
2023-05-09T15:30:18.008Z,6.60
2023-05-09T15:32:46.877Z,7.30
2023-05-09T15:35:15.702Z,7.50
2023-05-09T15:37:43.281Z,8.10
2023-05-09T15:40:11.553Z,6.60
2023-05-09T15:42:40.097Z,8.20
2023-05-09T15:45:08.717Z,7.90
2023-05-09T15:47:36.301Z,6.50
2023-05-09T15:50:05.476Z,6.70
2023-05-09T15:52:33.293Z,17.00
2023-05-09T15:55:00.839Z,8.20
2023-05-09T15:57:36.784Z,15.40
2023-05-09T16:00:05.388Z,5.40
2023-05-09T16:02:33.077Z,4.60
2023-05-09T16:05:00.674Z,6.80
2023-05-09T16:07:28.258Z,9.90
2023-05-09T16:09:55.996Z,7.40
2023-05-09T16:12:24.286Z,5.60
2023-05-09T16:14:51.833Z,5.10
2023-05-09T16:17:19.404Z,6.50
2023-05-09T16:19:46.921Z,9.70
2023-05-09T16:22:14.617Z,5.30
2023-05-09T16:24:42.217Z,8.70
2023-05-09T16:27:09.819Z,5.80
2023-05-09T16:29:37.302Z,4.50
2023-05-09T16:32:05.137Z,5.80
2023-05-09T16:34:32.836Z,6.10
2023-05-09T16:37:00.373Z,5.20
2023-05-09T16:39:29.532Z,9.70
2023-05-09T16:41:58.149Z,5.00
2023-05-09T16:44:26.514Z,6.70
2023-05-09T16:46:54.151Z,4.90
2023-05-09T16:49:22.866Z,15.40
2023-05-09T16:51:51.115Z,9.60
2023-05-09T16:54:18.583Z,4.30
2023-05-09T16:56:46.475Z,4.10
2023-05-09T16:59:13.963Z,10.50
2023-05-09T17:01:42.411Z,5.20
2023-05-09T17:04:10.075Z,6.20
2023-05-09T17:06:37.825Z,3.40
2023-05-09T17:09:05.436Z,3.40
2023-05-09T17:11:33.946Z,3.10
2023-05-09T17:14:04.456Z,4.10
2023-05-09T17:16:32.259Z,5.30
2023-05-09T17:19:00.250Z,3.30
2023-05-09T17:21:28.352Z,3.40
2023-05-09T17:23:56.214Z,3.90
2023-05-09T17:26:24.402Z,3.10
2023-05-09T17:28:52.037Z,3.40
2023-05-09T17:31:19.861Z,2.80
2023-05-09T17:33:47.356Z,2.30
2023-05-09T17:36:14.955Z,2.70
2023-05-09T17:38:42.537Z,3.00
2023-05-09T17:41:10.140Z,3.40
2023-05-09T17:43:40.226Z,2.90
2023-05-09T17:46:09.260Z,5.40
2023-05-09T17:48:39.078Z,2.80
2023-05-09T17:51:07.277Z,3.10
2023-05-09T17:53:34.870Z,2.60
2023-05-09T17:56:02.346Z,2.80
2023-05-09T17:58:30.100Z,3.50
2023-05-09T18:00:59.746Z,2.40
2023-05-09T18:03:29.135Z,2.00
2023-05-09T18:05:57.113Z,1.90
2023-05-09T18:08:25.049Z,1.90
2023-05-09T18:10:56.121Z,1.90
2023-05-09T18:13:23.908Z,2.00
2023-05-09T18:15:54.010Z,1.80
2023-05-09T18:18:22.903Z,2.10
2023-05-09T18:20:50.896Z,2.00
2023-05-09T18:23:18.379Z,2.80
2023-05-09T18:25:45.923Z,2.40
2023-05-09T18:28:13.376Z,2.60
2023-05-09T18:30:41.353Z,2.50
2023-05-09T18:33:08.967Z,6.50
2023-05-09T18:35:36.788Z,2.90
2023-05-09T18:38:04.376Z,2.80
2023-05-09T18:40:32.560Z,6.40
2023-05-09T18:43:00.045Z,6.40
2023-05-09T18:45:28.199Z,4.10
2023-05-09T18:47:55.782Z,7.30
2023-05-09T18:50:23.480Z,7.90
2023-05-09T18:52:52.063Z,3.80
2023-05-09T18:55:20.959Z,3.40
2023-05-09T18:57:49.074Z,3.60
2023-05-09T19:00:17.699Z,3.80
2023-05-09T19:02:45.587Z,3.80
2023-05-09T19:05:13.132Z,5.40
2023-05-09T19:07:40.619Z,3.90
2023-05-09T19:10:08.415Z,3.10
2023-05-09T19:12:36.105Z,2.90
2023-05-09T19:15:05.038Z,4.60
2023-05-09T19:17:33.430Z,2.60
2023-05-09T19:20:02.282Z,2.40
2023-05-09T19:22:29.770Z,2.00
2023-05-09T19:24:58.401Z,2.20
2023-05-09T19:27:25.942Z,2.30
2023-05-09T19:29:54.040Z,7.80
2023-05-09T19:32:22.426Z,32.00
2023-05-09T19:34:49.890Z,26.30
2023-05-09T19:37:17.464Z,22.80
2023-05-09T19:39:45.164Z,7.90
2023-05-09T19:42:12.722Z,13.90
2023-05-09T19:44:40.330Z,12.40
2023-05-09T19:47:09.129Z,9.40
2023-05-09T19:49:36.731Z,6.40
2023-05-09T19:52:04.428Z,12.60
2023-05-09T19:54:31.949Z,15.10
2023-05-09T19:56:59.402Z,32.10
2023-05-09T19:59:26.977Z,22.40
2023-05-09T20:01:54.542Z,58.00
2023-05-09T20:04:22.758Z,23.60
2023-05-09T20:06:50.746Z,36.90
2023-05-09T20:09:20.882Z,22.40
2023-05-09T20:11:48.528Z,25.60
2023-05-09T20:14:16.315Z,13.40
2023-05-09T20:16:44.236Z,26.40
2023-05-09T20:19:14.030Z,20.10
2023-05-09T20:21:42.644Z,26.90
2023-05-09T20:24:11.937Z,17.90
2023-05-09T20:26:39.511Z,15.50
2023-05-09T20:29:07.609Z,12.00
2023-05-09T20:31:35.605Z,8.60
2023-05-09T20:34:03.354Z,22.80
2023-05-09T20:36:31.519Z,20.30
2023-05-09T20:38:59.047Z,24.40
2023-05-09T20:41:27.100Z,27.30
2023-05-09T20:43:54.812Z,34.70
2023-05-09T20:46:22.349Z,32.40
2023-05-09T20:48:49.993Z,16.70
2023-05-09T20:51:17.505Z,9.80
2023-05-09T20:53:45.086Z,7.80
2023-05-09T20:56:12.679Z,7.20
2023-05-09T20:58:40.788Z,4.80
2023-05-09T21:01:08.408Z,4.30
2023-05-09T21:03:35.925Z,3.30
2023-05-09T21:06:03.608Z,3.20
2023-05-09T21:08:31.245Z,3.30
2023-05-09T21:10:58.899Z,2.90
2023-05-09T21:13:26.525Z,2.70
2023-05-09T21:15:54.159Z,2.90
2023-05-09T21:18:21.754Z,2.90
2023-05-09T21:20:49.509Z,3.00
2023-05-09T21:23:18.851Z,2.90
2023-05-09T21:25:46.380Z,2.50
2023-05-09T21:28:15.463Z,2.80
2023-05-09T21:30:43.039Z,2.90
2023-05-09T21:33:11.763Z,2.70
2023-05-09T21:35:39.557Z,2.80
2023-05-09T21:38:07.152Z,2.90
2023-05-09T21:40:34.897Z,3.10
2023-05-09T21:43:03.416Z,3.00
2023-05-09T21:45:30.888Z,2.70
2023-05-09T21:47:58.682Z,3.00
2023-05-09T21:50:26.287Z,3.00
2023-05-09T21:52:56.406Z,2.80
2023-05-09T21:55:24.130Z,3.90
2023-05-09T21:57:51.784Z,6.70
2023-05-09T22:00:21.341Z,8.80
2023-05-09T22:02:49.000Z,9.70
2023-05-09T22:05:16.818Z,8.60
2023-05-09T22:07:44.346Z,6.50
2023-05-09T22:10:12.093Z,5.60
2023-05-09T22:12:39.706Z,4.70
2023-05-09T22:15:07.720Z,4.40
2023-05-09T22:17:35.962Z,3.20
2023-05-09T22:20:04.067Z,3.20
2023-05-09T22:22:33.113Z,3.20
2023-05-09T22:25:00.724Z,2.90
2023-05-09T22:27:28.330Z,2.90
2023-05-09T22:29:56.104Z,2.70
2023-05-09T22:32:24.272Z,3.00
2023-05-09T22:34:53.969Z,2.80
2023-05-09T22:37:21.524Z,2.70
2023-05-09T22:39:49.047Z,3.00
2023-05-09T22:42:16.628Z,3.20
2023-05-09T22:44:44.973Z,3.70
2023-05-09T22:47:12.764Z,7.70
2023-05-09T22:49:40.381Z,4.80
2023-05-09T22:52:07.840Z,4.00
2023-05-09T22:54:35.331Z,4.20
2023-05-09T22:57:02.929Z,5.40
2023-05-09T22:59:30.558Z,4.20
2023-05-09T23:01:59.507Z,3.20
2023-05-09T23:04:27.664Z,4.10
2023-05-09T23:06:55.649Z,5.20
2023-05-09T23:09:23.280Z,3.60
2023-05-09T23:11:51.579Z,5.80
2023-05-09T23:14:19.184Z,4.60
2023-05-09T23:16:47.200Z,3.10
2023-05-09T23:19:14.771Z,3.50
2023-05-09T23:21:42.318Z,3.40
2023-05-09T23:24:09.831Z,2.70
2023-05-09T23:26:38.304Z,4.80
2023-05-09T23:29:05.862Z,5.20
2023-05-09T23:31:33.875Z,4.00
2023-05-09T23:34:01.521Z,3.00
2023-05-09T23:36:29.162Z,4.10
2023-05-09T23:38:56.726Z,4.40
2023-05-09T23:41:24.330Z,4.50
2023-05-09T23:43:51.839Z,4.20
2023-05-09T23:46:19.416Z,4.40
2023-05-09T23:48:46.970Z,3.90
2023-05-09T23:51:14.534Z,3.90
2023-05-09T23:53:42.121Z,3.30
2023-05-09T23:56:10.664Z,3.70
2023-05-09T23:58:38.341Z,4.30
